createdAt,value
2022-11-21T00:03:47.212Z,-4.50
2022-11-21T00:06:14.852Z,-4.40
2022-11-21T00:08:42.544Z,-4.50
2022-11-21T00:11:10.063Z,-4.50
2022-11-21T00:16:06.908Z,-4.40
2022-11-21T00:18:35.264Z,-4.50
2022-11-21T00:23:42.599Z,-4.40
2022-11-21T00:28:38.734Z,-4.50
2022-11-21T00:33:39.087Z,-4.50
2022-11-21T00:36:08.220Z,-4.50
2022-11-21T00:38:35.870Z,-4.50
2022-11-21T00:46:01.353Z,-4.50
2022-11-21T00:48:30.431Z,-4.60
2022-11-21T00:50:58.110Z,-4.60
2022-11-21T00:58:23.945Z,-4.70
2022-11-21T01:00:51.577Z,-4.60
2022-11-21T01:05:46.918Z,-4.60
2022-11-21T01:08:14.447Z,-4.80
2022-11-21T01:10:41.873Z,-4.60
2022-11-21T01:13:09.426Z,-4.70
2022-11-21T01:15:36.591Z,-4.70
2022-11-21T01:18:04.581Z,-4.70
2022-11-21T01:20:32.335Z,-4.80
2022-11-21T01:25:28.376Z,-4.70
2022-11-21T01:27:55.802Z,-4.70
2022-11-21T01:32:51.134Z,-4.80
2022-11-21T01:35:19.508Z,-4.80
2022-11-21T01:37:50.003Z,-4.80
2022-11-21T01:40:18.791Z,-4.70
2022-11-21T01:46:04.150Z,-4.70
2022-11-21T01:49:00.824Z,-4.80
2022-11-21T01:51:46.146Z,-4.70
2022-11-21T01:54:29.729Z,-4.80
2022-11-21T01:57:17.991Z,-4.90
2022-11-21T02:00:08.943Z,-4.70
2022-11-21T02:02:43.643Z,-4.70
2022-11-21T02:05:20.776Z,-4.80
2022-11-21T02:07:49.840Z,-4.90
2022-11-21T02:12:52.004Z,-4.90
2022-11-21T02:15:25.625Z,-5.00
2022-11-21T02:17:53.124Z,-4.90
2022-11-21T02:23:01.099Z,-5.00
2022-11-21T02:25:36.147Z,-5.00
2022-11-21T02:28:07.013Z,-4.90
2022-11-21T02:30:37.712Z,-5.00
2022-11-21T02:33:06.050Z,-5.00
2022-11-21T02:35:36.524Z,-5.10
2022-11-21T02:38:28.127Z,-5.00
2022-11-21T02:41:26.764Z,-5.10
2022-11-21T02:44:02.736Z,-5.00
2022-11-21T02:46:30.344Z,-5.10
2022-11-21T02:48:58.804Z,-5.00
2022-11-21T02:51:26.524Z,-5.10
2022-11-21T02:53:54.125Z,-5.10
2022-11-21T02:56:22.037Z,-5.10
2022-11-21T02:58:50.071Z,-5.10
2022-11-21T03:01:17.850Z,-5.20
2022-11-21T03:03:45.471Z,-5.20
2022-11-21T03:06:13.007Z,-5.20
2022-11-21T03:08:40.737Z,-5.10
2022-11-21T03:16:03.757Z,-5.20
2022-11-21T03:25:55.862Z,-5.10
2022-11-21T03:28:23.322Z,-5.20
2022-11-21T03:30:51.051Z,-5.10
2022-11-21T03:33:18.984Z,-5.10
2022-11-21T03:35:47.805Z,-5.10
2022-11-21T03:38:15.366Z,-5.10
2022-11-21T03:40:42.996Z,-5.10
2022-11-21T03:48:06.122Z,-5.00
2022-11-21T03:53:01.340Z,-5.00
2022-11-21T03:55:29.020Z,-5.10
2022-11-21T04:00:24.628Z,-5.00
2022-11-21T04:02:53.227Z,-5.00
2022-11-21T04:05:20.891Z,-5.00
2022-11-21T04:07:48.726Z,-4.90
2022-11-21T04:12:44.650Z,-4.90
2022-11-21T04:15:13.822Z,-4.90
2022-11-21T04:17:41.967Z,-5.00
2022-11-21T04:20:10.103Z,-5.00
2022-11-21T04:22:37.396Z,-4.90
2022-11-21T04:25:05.503Z,-4.90
2022-11-21T04:27:33.018Z,-4.90
2022-11-21T04:30:00.787Z,-3.50
2022-11-21T04:32:28.399Z,-4.90
2022-11-21T04:34:58.161Z,-4.90
2022-11-21T04:37:25.809Z,-4.90
2022-11-21T04:39:53.560Z,-5.00
2022-11-21T04:44:49.089Z,-4.80
2022-11-21T04:47:16.655Z,-4.90
2022-11-21T04:49:44.158Z,-4.80
2022-11-21T04:59:36.087Z,-4.70
2022-11-21T05:04:32.367Z,-4.70
2022-11-21T05:12:13.816Z,-4.80
2022-11-21T05:14:41.529Z,-4.90
2022-11-21T05:17:10.147Z,-4.70
2022-11-21T05:19:37.881Z,-4.70
2022-11-21T05:22:06.381Z,-4.80
2022-11-21T05:24:34.246Z,-4.70
2022-11-21T05:27:01.669Z,-4.70
2022-11-21T05:29:29.017Z,-4.80
2022-11-21T05:34:24.157Z,-4.70
2022-11-21T05:36:58.250Z,-4.80
2022-11-21T05:44:28.934Z,-4.70
2022-11-21T05:46:56.626Z,-4.70
2022-11-21T05:49:24.227Z,-4.80
2022-11-21T05:54:19.716Z,-4.70
2022-11-21T05:59:15.689Z,-4.70
2022-11-21T06:02:02.004Z,-4.70
2022-11-21T06:04:30.238Z,-4.70
2022-11-21T06:11:53.319Z,-4.60
2022-11-21T06:14:20.924Z,-4.60
2022-11-21T06:16:48.432Z,-4.60
2022-11-21T06:19:15.973Z,-4.60
2022-11-21T06:26:40.024Z,-4.60
2022-11-21T06:29:10.554Z,-4.60
2022-11-21T06:31:39.279Z,-4.60
2022-11-21T06:36:34.834Z,-4.60
2022-11-21T06:39:02.464Z,-4.60
2022-11-21T06:41:32.660Z,-4.60
2022-11-21T06:44:01.889Z,-4.60
2022-11-21T06:48:57.260Z,-4.60
2022-11-21T06:51:26.092Z,-4.70
2022-11-21T06:53:57.800Z,-4.70
2022-11-21T06:56:26.723Z,-4.60
2022-11-21T06:58:54.551Z,-4.50
2022-11-21T07:01:22.529Z,-4.60
2022-11-21T07:03:50.488Z,-4.60
2022-11-21T07:06:18.198Z,-4.50
2022-11-21T07:11:25.533Z,-4.50
2022-11-21T07:13:53.702Z,-4.60
2022-11-21T07:16:21.514Z,-4.50
2022-11-21T07:18:49.299Z,-4.50
2022-11-21T07:21:17.190Z,-4.50
2022-11-21T07:23:44.676Z,-4.40
2022-11-21T07:26:12.743Z,-4.50
2022-11-21T07:28:40.244Z,-4.50
2022-11-21T07:31:13.572Z,-4.50
2022-11-21T07:36:12.213Z,-4.30
2022-11-21T07:38:41.485Z,-4.30
2022-11-21T07:43:37.311Z,-4.30
2022-11-21T07:48:32.759Z,-4.30
2022-11-21T07:53:28.229Z,-4.40
2022-11-21T07:55:58.444Z,-4.40
2022-11-21T07:58:25.975Z,-4.30
2022-11-21T08:03:25.385Z,-4.10
2022-11-21T08:05:52.593Z,-4.10
2022-11-21T08:13:15.995Z,-4.10
2022-11-21T08:28:06.763Z,-3.80
2022-11-21T08:33:03.017Z,-3.90
2022-11-21T08:35:30.771Z,-3.90
2022-11-21T08:37:59.130Z,-3.90
2022-11-21T08:43:07.961Z,-3.90
2022-11-21T08:45:39.850Z,-3.90
2022-11-21T08:55:42.181Z,-3.80
2022-11-21T08:58:09.883Z,-3.90
2022-11-21T09:00:37.793Z,-3.80
2022-11-21T09:03:05.968Z,-3.80
2022-11-21T09:08:02.118Z,-3.90
2022-11-21T09:10:29.712Z,-3.80
2022-11-21T09:15:47.925Z,-3.70
2022-11-21T09:18:15.629Z,-3.60
2022-11-21T09:20:44.650Z,-3.50
2022-11-21T09:23:14.697Z,-3.50
2022-11-21T09:25:43.354Z,-3.50
2022-11-21T09:30:40.080Z,-3.40
2022-11-21T09:33:11.069Z,-3.40
2022-11-21T09:35:39.037Z,-3.50
2022-11-21T09:38:08.759Z,-3.50
2022-11-21T09:40:36.926Z,-3.50
2022-11-21T09:48:32.655Z,-3.50
2022-11-21T09:51:09.989Z,-3.50
2022-11-21T10:01:18.327Z,-3.40
2022-11-21T10:03:53.116Z,-3.40
2022-11-21T10:09:04.464Z,-3.20
2022-11-21T10:12:03.396Z,-3.10
2022-11-21T10:15:16.631Z,-3.10
2022-11-21T10:18:21.081Z,-3.10
2022-11-21T10:25:58.284Z,-3.10
2022-11-21T10:28:32.549Z,-3.10
2022-11-21T10:31:01.997Z,-3.00
2022-11-21T10:41:28.055Z,-3.00
2022-11-21T10:44:22.513Z,-3.00
2022-11-21T10:49:32.570Z,-2.80
2022-11-21T10:55:03.600Z,-2.80
2022-11-21T10:57:51.415Z,-2.90
2022-11-21T11:00:33.898Z,-2.80
2022-11-21T11:03:05.551Z,-2.80
2022-11-21T11:05:41.574Z,-2.80
2022-11-21T11:10:43.804Z,-2.60
2022-11-21T11:16:19.674Z,-2.50
2022-11-21T11:21:20.597Z,-2.50
2022-11-21T11:23:51.105Z,-2.70
2022-11-21T11:31:24.254Z,-2.70
2022-11-21T11:42:27.202Z,-2.70
2022-11-21T11:45:31.129Z,-2.70
2022-11-21T11:53:33.899Z,-2.50
2022-11-21T11:56:23.982Z,-2.60
2022-11-21T11:58:51.406Z,-2.60
2022-11-21T12:01:30.593Z,-2.60
2022-11-21T12:04:04.382Z,-2.70
2022-11-21T12:09:43.408Z,-2.70
2022-11-21T12:15:22.462Z,-2.70
2022-11-21T12:18:20.635Z,-2.60
2022-11-21T12:23:55.327Z,-2.50
2022-11-21T12:26:43.960Z,-2.50
2022-11-21T12:29:35.542Z,-2.60
2022-11-21T12:37:52.890Z,-2.70
2022-11-21T12:40:52.715Z,-2.70
2022-11-21T12:43:38.251Z,-2.70
2022-11-21T12:49:33.471Z,-2.70
2022-11-21T12:52:52.248Z,-2.70
2022-11-21T12:55:40.301Z,-2.80
2022-11-21T12:58:33.381Z,-2.90
2022-11-21T13:01:23.610Z,-2.90
2022-11-21T13:04:06.294Z,-2.80
2022-11-21T13:12:00.324Z,-2.80
2022-11-21T13:17:20.628Z,-2.90
2022-11-21T13:25:10.005Z,-2.90
2022-11-21T13:35:22.478Z,-2.80
2022-11-21T13:37:54.200Z,-2.80
2022-11-21T13:40:27.732Z,-2.80
2022-11-21T13:43:36.719Z,-2.80
2022-11-21T13:46:04.813Z,-2.80
2022-11-21T13:48:53.006Z,-2.80
2022-11-21T13:51:38.797Z,-2.70
2022-11-21T13:54:12.081Z,-2.80
2022-11-21T13:57:04.255Z,-2.80
2022-11-21T14:00:19.888Z,-2.80
2022-11-21T14:03:07.548Z,-2.80
2022-11-21T14:05:59.420Z,-2.90
2022-11-21T14:08:29.403Z,-2.90
2022-11-21T14:10:58.321Z,-2.80
2022-11-21T14:16:17.822Z,-2.80
2022-11-21T14:18:47.239Z,-2.90
2022-11-21T14:21:31.046Z,-2.80
2022-11-21T14:24:05.413Z,-2.90
2022-11-21T14:29:41.054Z,-2.90
2022-11-21T14:37:14.087Z,-2.70
2022-11-21T14:39:44.885Z,-2.70
2022-11-21T14:44:45.353Z,-2.80
2022-11-21T14:47:25.323Z,-2.90
2022-11-21T14:50:06.884Z,-2.80
2022-11-21T14:52:35.151Z,-2.80
2022-11-21T14:57:53.423Z,-2.90
2022-11-21T15:03:22.997Z,-2.80
2022-11-21T15:06:05.093Z,-2.90
2022-11-21T15:11:26.270Z,-2.90
2022-11-21T15:14:15.395Z,-2.90
2022-11-21T15:16:48.018Z,-2.90
2022-11-21T15:19:24.058Z,-2.90
2022-11-21T15:21:54.705Z,-2.90
2022-11-21T15:24:42.759Z,-2.90
2022-11-21T15:27:40.576Z,-2.90
2022-11-21T15:30:34.138Z,-2.90
2022-11-21T15:33:20.991Z,-2.90
2022-11-21T15:35:54.081Z,-3.00
2022-11-21T15:38:45.038Z,-3.00
2022-11-21T15:41:15.089Z,-3.00
2022-11-21T15:43:45.537Z,-3.00
2022-11-21T15:46:30.137Z,-3.00
2022-11-21T15:54:35.173Z,-3.00
2022-11-21T15:57:02.480Z,-2.90
2022-11-21T15:59:29.924Z,-2.90
2022-11-21T16:01:57.640Z,-3.00
2022-11-21T16:04:26.641Z,-3.00
2022-11-21T16:06:57.406Z,-2.90
2022-11-21T16:16:48.702Z,-2.80
2022-11-21T16:19:16.562Z,-2.80
2022-11-21T16:21:44.331Z,-2.80
2022-11-21T16:24:12.791Z,-2.80
2022-11-21T16:26:40.568Z,-2.80
2022-11-21T16:29:10.667Z,-2.80
2022-11-21T16:31:38.823Z,-2.80
2022-11-21T16:34:06.724Z,-2.70
2022-11-21T16:41:39.478Z,-2.70
2022-11-21T16:44:14.044Z,-2.70
2022-11-21T16:46:51.729Z,-2.70
2022-11-21T16:49:20.274Z,-2.70
2022-11-21T16:51:47.590Z,-2.70
2022-11-21T16:54:15.725Z,-2.70
2022-11-21T16:56:43.235Z,-2.80
2022-11-21T16:59:10.689Z,-2.80
2022-11-21T17:01:38.426Z,-2.80
2022-11-21T17:06:34.662Z,-2.70
2022-11-21T17:09:02.867Z,-2.70
2022-11-21T17:11:31.624Z,-2.80
2022-11-21T17:14:04.658Z,-2.80
2022-11-21T17:16:33.031Z,-2.80
2022-11-21T17:19:01.867Z,-2.80
2022-11-21T17:21:30.251Z,-2.80
2022-11-21T17:23:58.531Z,-2.80
2022-11-21T17:26:28.045Z,-2.80
2022-11-21T17:28:58.605Z,-2.90
2022-11-21T17:31:26.257Z,-2.90
2022-11-21T17:33:55.643Z,-2.90
2022-11-21T17:38:53.074Z,-2.90
2022-11-21T17:41:22.940Z,-2.90
2022-11-21T17:43:53.728Z,-2.90
2022-11-21T17:46:21.429Z,-2.90
2022-11-21T17:48:55.535Z,-2.90
2022-11-21T17:51:29.925Z,-2.80
2022-11-21T17:56:28.042Z,-2.90
2022-11-21T17:58:55.815Z,-2.80
2022-11-21T18:04:01.610Z,-2.80
2022-11-21T18:06:33.521Z,-2.80
2022-11-21T18:09:01.331Z,-2.90
2022-11-21T18:14:03.831Z,-2.80
2022-11-21T18:16:33.542Z,-2.80
2022-11-21T18:19:01.131Z,-2.80
2022-11-21T18:21:30.647Z,-2.80
2022-11-21T18:23:59.862Z,-2.80
2022-11-21T18:26:36.136Z,-2.70
2022-11-21T18:29:35.555Z,-2.80
2022-11-21T18:31:53.974Z,-2.80
2022-11-21T18:36:49.411Z,-2.80
2022-11-21T18:41:44.907Z,-2.80
2022-11-21T18:44:20.159Z,-2.80
2022-11-21T18:49:19.743Z,-2.70
2022-11-21T18:51:48.439Z,-2.70
2022-11-21T18:54:16.413Z,-2.70
2022-11-21T18:56:44.093Z,-2.80
2022-11-21T18:59:11.806Z,-2.70
2022-11-21T19:04:07.989Z,-2.80
2022-11-21T19:06:35.776Z,-2.70
2022-11-21T19:09:03.337Z,-2.70
2022-11-21T19:11:31.385Z,-2.70
2022-11-21T19:16:31.282Z,-2.70
2022-11-21T19:19:32.451Z,-2.70
2022-11-21T19:21:47.317Z,-2.70
2022-11-21T19:24:19.603Z,-2.60
2022-11-21T19:26:50.457Z,-2.70
2022-11-21T19:31:46.649Z,-2.70
2022-11-21T19:34:15.592Z,-2.70
2022-11-21T19:36:43.421Z,-2.70
2022-11-21T19:39:11.189Z,-2.70
2022-11-21T19:41:39.247Z,-2.60
2022-11-21T19:46:36.927Z,-2.70
2022-11-21T19:49:04.742Z,-2.70
2022-11-21T19:51:35.928Z,-2.70
2022-11-21T19:54:04.854Z,-2.70
2022-11-21T19:59:00.453Z,-2.60
2022-11-21T20:01:30.583Z,-2.70
2022-11-21T20:04:00.014Z,-2.60
2022-11-21T20:06:31.531Z,-2.70
2022-11-21T20:11:29.863Z,-2.60
2022-11-21T20:13:57.674Z,-2.70
2022-11-21T20:16:31.215Z,-2.60
2022-11-21T20:19:01.113Z,-2.60
2022-11-21T20:21:30.537Z,-2.70
2022-11-21T20:26:27.261Z,-2.70
2022-11-21T20:28:55.231Z,-2.60
2022-11-21T20:31:27.229Z,-2.60
2022-11-21T20:39:01.601Z,-2.60
2022-11-21T20:41:30.891Z,-2.60
2022-11-21T20:46:48.863Z,-2.60
2022-11-21T20:49:17.640Z,-2.60
2022-11-21T20:57:00.826Z,-2.70
2022-11-21T20:59:28.927Z,-2.70
2022-11-21T21:01:57.042Z,-2.60
2022-11-21T21:04:24.642Z,-2.60
2022-11-21T21:06:52.198Z,-2.60
2022-11-21T21:09:20.045Z,-2.60
2022-11-21T21:11:53.092Z,-2.60
2022-11-21T21:14:22.392Z,-2.50
2022-11-21T21:16:50.486Z,-2.60
2022-11-21T21:19:18.522Z,-2.50
2022-11-21T21:21:47.403Z,-2.50
2022-11-21T21:24:15.997Z,-2.50
2022-11-21T21:26:46.516Z,-2.50
2022-11-21T21:29:22.147Z,-2.50
2022-11-21T21:31:52.384Z,-2.60
2022-11-21T21:34:21.904Z,-2.50
2022-11-21T21:36:50.925Z,-2.50
2022-11-21T21:39:20.872Z,-2.50
2022-11-21T21:41:48.685Z,-2.50
2022-11-21T21:44:16.962Z,-2.50
2022-11-21T21:49:12.711Z,-2.50
2022-11-21T21:51:40.336Z,-2.50
2022-11-21T21:54:13.723Z,-2.40
2022-11-21T21:56:41.128Z,-2.50
2022-11-21T21:59:08.759Z,-2.40
2022-11-21T22:01:36.452Z,-2.40
2022-11-21T22:04:05.759Z,-2.50
2022-11-21T22:06:36.620Z,-2.50
2022-11-21T22:09:04.394Z,-2.50
2022-11-21T22:11:35.972Z,-2.50
2022-11-21T22:14:05.642Z,-2.40
2022-11-21T22:16:33.445Z,-2.40
2022-11-21T22:19:01.239Z,-2.40
2022-11-21T22:21:32.860Z,-2.40
2022-11-21T22:24:28.219Z,-2.40
2022-11-21T22:29:23.528Z,-2.40
2022-11-21T22:31:51.627Z,-2.40
2022-11-21T22:34:19.543Z,-2.40
2022-11-21T22:36:47.272Z,-2.40
2022-11-21T22:39:15.516Z,-2.50
2022-11-21T22:44:10.979Z,-2.30
2022-11-21T22:46:38.805Z,-2.40
2022-11-21T22:51:34.769Z,-2.40
2022-11-21T22:54:02.241Z,-2.40
2022-11-21T22:56:29.934Z,-2.40
2022-11-21T22:58:57.654Z,-2.30
2022-11-21T23:01:26.435Z,-2.30
2022-11-21T23:03:55.793Z,-2.40
2022-11-21T23:06:25.299Z,-2.40
2022-11-21T23:08:57.485Z,-2.30
2022-11-21T23:11:36.353Z,-2.40
2022-11-21T23:14:07.969Z,-2.40
2022-11-21T23:16:35.376Z,-2.30
2022-11-21T23:21:30.685Z,-2.30
2022-11-21T23:23:59.123Z,-1.90
2022-11-21T23:26:26.452Z,-2.30
2022-11-21T23:28:54.248Z,-2.20
2022-11-21T23:31:21.941Z,-2.20
2022-11-21T23:33:49.671Z,-2.20
2022-11-21T23:36:17.514Z,-2.20
2022-11-21T23:41:12.844Z,-2.10
2022-11-21T23:43:40.709Z,-2.20
2022-11-21T23:46:08.241Z,-2.10
2022-11-21T23:53:31.482Z,-2.10
2022-11-21T23:55:59.072Z,-2.10
